Terminal Aerodrome Forecast
Issued by NWS Wilmington, NC

Home | Current Version | Previous Version | Text Only | Print | Product List | Glossary On
Versions: 1 2 3 4 5 6 7 8 9 10 11 12 13 14 15 16 17 18 19 20
787
FTUS42 KILM 310949 CCA
TAFMYR
TAF COR
KMYR 310949Z 3110/0106 36007KT 6SM BR VCSH BKN004 BKN035
      TEMPO 3110/3114 5SM -SHRA BR SCT004 BKN035
     FM311400 01008KT P6SM VCTS SCT015CB BKN025
     FM312200 16009KT P6SM VCSH SCT030 BKN050
     FM010200 06006KT P6SM VCSH BKN050 OVC100
      AMD LTD TO CLD VIS AND WIND TIL 311100=

USA.gov is the U.S. government's official web portal to all federal, state and local government web resources and services.